Terminal Aerodrome Forecast
Issued by NWS Lake Charles, LA

Home | Current Version | Previous Version | Text Only | Print | Product List | Glossary On
Versions: 1 2 3 4 5 6 7 8 9 10 11 12 13 14 15 16 17 18 19 20 21 22 23 24 25
467
FTUS44 KLCH 200541
TAFLFT
TAF
KLFT 200541Z 2006/2106 19003KT 5SM BR SCT004 SCT040
      TEMPO 2006/2008 2SM BR BKN004
     FM200800 20003KT 1SM BR BKN003
     FM201500 22005KT 4SM BR BKN007 BKN020
     FM201600 23008KT P6SM SCT025 SCT250
     FM210100 18005KT P6SM VCSH BKN007 OVC025=

USA.gov is the U.S. government's official web portal to all federal, state and local government web resources and services.